Terminal Aerodrome Forecast
Issued by NWS

Home | Current Version | Previous Version | Text Only | Print | Product List | Glossary On
Versions: 1 2 3 4 5 6 7 8 9 10 11 12 13 14 15 16
000
FTUS43 KOAX 230643 AAA
TAFSNY
TAF AMD
KSNY 230643Z 2307/2406 03012KT P6SM -SHRA BKN060 OVC100
      TEMPO 2307/2309 6SM -TSRA SCT050CB OVC070
     FM231200 34012KT P6SM BKN050
     FM231800 35012G20KT P6SM SCT050
     FM240100 05005KT P6SM SKC=

USA.gov is the U.S. government's official web portal to all federal, state and local government web resources and services.